createdAt,value
2018-11-11T00:02:11.620Z,69.63
2018-11-11T00:04:39.812Z,76.43
2018-11-11T00:07:07.931Z,76.80
2018-11-11T00:09:36.103Z,72.03
2018-11-11T00:12:04.507Z,68.27
2018-11-11T00:14:32.707Z,72.40
2018-11-11T00:17:00.917Z,64.07
2018-11-11T00:19:29.060Z,71.97
2018-11-11T00:21:57.238Z,72.10
2018-11-11T00:24:25.377Z,72.93
2018-11-11T00:26:53.569Z,74.40
2018-11-11T00:29:21.804Z,76.33
2018-11-11T00:31:50.028Z,69.37
2018-11-11T00:34:18.177Z,67.13
2018-11-11T00:36:46.325Z,66.93
2018-11-11T00:39:14.516Z,64.50
2018-11-11T00:41:42.672Z,67.83
2018-11-11T00:44:10.847Z,61.67
2018-11-11T00:46:38.927Z,59.83
2018-11-11T00:49:07.604Z,57.83
2018-11-11T00:51:35.889Z,66.50
2018-11-11T00:54:13.738Z,68.53
2018-11-11T00:56:41.882Z,58.17
2018-11-11T00:59:10.060Z,65.70
2018-11-11T01:01:38.211Z,55.30
2018-11-11T01:04:06.467Z,63.57
2018-11-11T01:06:34.596Z,63.13
2018-11-11T01:09:02.795Z,59.83
2018-11-11T01:11:30.943Z,58.37
2018-11-11T01:13:59.089Z,55.53
2018-11-11T01:16:27.291Z,62.13
2018-11-11T01:18:55.435Z,57.03
2018-11-11T01:21:23.624Z,58.20
2018-11-11T01:24:54.847Z,71.97
2018-11-11T01:27:22.963Z,70.53
2018-11-11T01:29:51.165Z,56.20
2018-11-11T01:32:19.275Z,66.80
2018-11-11T01:34:47.419Z,55.60
2018-11-11T01:37:15.549Z,57.13
2018-11-11T01:39:43.714Z,69.07
2018-11-11T01:42:11.911Z,73.80
2018-11-11T01:44:40.096Z,59.53
2018-11-11T01:47:08.257Z,55.87
2018-11-11T01:49:36.417Z,69.33
2018-11-11T01:52:04.993Z,59.00
2018-11-11T01:54:33.175Z,62.40
2018-11-11T01:57:01.373Z,57.43
2018-11-11T01:59:29.524Z,63.13
2018-11-11T02:01:57.697Z,58.83
2018-11-11T02:04:25.876Z,65.27
2018-11-11T02:06:54.041Z,69.23
2018-11-11T02:09:22.212Z,62.60
2018-11-11T02:11:50.394Z,53.03
2018-11-11T02:14:18.550Z,71.07
2018-11-11T02:16:46.770Z,67.00
2018-11-11T02:19:14.907Z,53.97
2018-11-11T02:21:43.160Z,62.10
2018-11-11T02:24:11.248Z,55.30
2018-11-11T02:26:39.344Z,65.63
2018-11-11T02:29:07.491Z,61.73
2018-11-11T02:31:35.612Z,62.93
2018-11-11T02:34:03.806Z,63.47
2018-11-11T02:36:31.968Z,68.70
2018-11-11T02:39:00.116Z,76.93
2018-11-11T02:41:28.259Z,62.87
2018-11-11T02:43:56.443Z,52.05
2018-11-11T02:46:24.666Z,52.45
2018-11-11T02:48:52.800Z,52.70
2018-11-11T02:51:20.971Z,64.22
2018-11-11T02:53:49.132Z,49.73
2018-11-11T02:56:17.239Z,67.03
2018-11-11T02:58:45.829Z,57.33
2018-11-11T03:01:13.969Z,59.45
2018-11-11T03:03:42.140Z,66.10
2018-11-11T03:06:10.327Z,62.13
2018-11-11T03:08:38.496Z,58.10
2018-11-11T03:11:06.715Z,87.60
2018-11-11T03:13:34.888Z,61.15
2018-11-11T03:16:03.407Z,58.78
2018-11-11T03:18:31.521Z,62.20
2018-11-11T03:20:59.679Z,61.90
2018-11-11T03:23:28.123Z,71.90
2018-11-11T03:25:56.221Z,60.88
2018-11-11T03:28:24.294Z,54.33
2018-11-11T03:30:52.371Z,58.38
2018-11-11T03:33:20.554Z,57.98
2018-11-11T03:35:48.754Z,59.85
2018-11-11T03:38:16.974Z,57.50
2018-11-11T03:40:45.123Z,66.02
2018-11-11T03:43:13.255Z,67.37
2018-11-11T03:45:41.421Z,68.57
2018-11-11T03:48:09.607Z,73.22
2018-11-11T03:50:37.791Z,63.15
2018-11-11T03:53:05.999Z,67.50
2018-11-11T03:55:34.117Z,55.43
2018-11-11T03:58:02.343Z,62.03
2018-11-11T04:00:30.492Z,76.05
2018-11-11T04:02:58.643Z,72.27
2018-11-11T04:05:26.833Z,75.52
2018-11-11T04:07:54.989Z,68.57
2018-11-11T04:10:23.303Z,69.03
2018-11-11T04:12:51.355Z,79.80
2018-11-11T04:15:20.091Z,65.97
2018-11-11T04:17:48.500Z,75.90
2018-11-11T04:20:18.840Z,61.18
2018-11-11T04:22:47.028Z,72.40
2018-11-11T04:25:15.877Z,79.62
2018-11-11T04:27:43.980Z,61.87
2018-11-11T04:30:13.268Z,67.07
2018-11-11T04:32:41.947Z,61.00
2018-11-11T04:35:10.104Z,67.58
2018-11-11T04:37:38.198Z,63.20
2018-11-11T04:40:08.581Z,62.05
2018-11-11T04:42:36.787Z,66.20
2018-11-11T04:45:06.147Z,58.55
2018-11-11T04:47:34.265Z,58.17
2018-11-11T04:50:02.689Z,70.57
2018-11-11T04:52:30.820Z,60.40
2018-11-11T04:54:58.936Z,69.05
2018-11-11T04:57:27.058Z,71.80
2018-11-11T04:59:55.163Z,58.02
2018-11-11T05:02:23.327Z,58.33
2018-11-11T05:04:51.523Z,69.30
2018-11-11T05:07:19.665Z,67.73
2018-11-11T05:09:47.788Z,76.33
2018-11-11T05:12:15.945Z,80.40
2018-11-11T05:14:44.083Z,74.97
2018-11-11T05:17:12.174Z,78.15
2018-11-11T05:19:40.451Z,75.30
2018-11-11T05:22:08.672Z,67.70
2018-11-11T05:24:37.095Z,59.80
2018-11-11T05:27:05.187Z,60.60
2018-11-11T05:29:33.348Z,83.53
2018-11-11T05:32:01.511Z,71.63
2018-11-11T05:34:29.607Z,71.10
2018-11-11T05:36:57.804Z,82.47
2018-11-11T05:39:26.114Z,56.27
2018-11-11T05:41:54.237Z,67.47
2018-11-11T05:44:22.388Z,62.70
2018-11-11T05:46:50.470Z,67.83
2018-11-11T05:49:18.642Z,72.63
2018-11-11T05:51:46.811Z,59.83
2018-11-11T05:54:14.990Z,68.17
2018-11-11T05:56:43.076Z,62.93
2018-11-11T05:59:11.268Z,65.00
2018-11-11T06:01:39.431Z,64.90
2018-11-11T06:04:07.648Z,62.70
2018-11-11T06:06:35.795Z,71.00
2018-11-11T06:09:05.509Z,53.73
2018-11-11T06:11:33.652Z,69.63
2018-11-11T06:14:01.836Z,51.03
2018-11-11T06:16:29.915Z,50.67
2018-11-11T06:18:58.052Z,51.17
2018-11-11T06:21:26.249Z,57.00
2018-11-11T06:23:54.440Z,60.03
2018-11-11T06:26:22.600Z,59.50
2018-11-11T06:28:50.765Z,52.87
2018-11-11T06:31:18.957Z,56.20
2018-11-11T06:33:47.109Z,54.90
2018-11-11T06:36:15.201Z,58.30
2018-11-11T06:38:43.367Z,57.20
2018-11-11T06:41:11.564Z,52.70
2018-11-11T06:43:39.714Z,62.67
2018-11-11T06:46:07.921Z,57.73
2018-11-11T06:48:36.062Z,52.97
2018-11-11T06:51:04.222Z,51.83
2018-11-11T06:53:32.433Z,52.00
2018-11-11T06:56:01.185Z,64.27
2018-11-11T06:58:29.320Z,63.50
2018-11-11T07:00:57.474Z,53.93
2018-11-11T07:03:37.007Z,71.50
2018-11-11T07:06:05.562Z,56.33
2018-11-11T07:08:33.819Z,67.00
2018-11-11T07:11:01.985Z,62.10
2018-11-11T07:13:30.110Z,58.73
2018-11-11T07:15:58.278Z,73.17
2018-11-11T07:18:26.476Z,60.57
2018-11-11T07:20:54.644Z,70.90
2018-11-11T07:23:22.804Z,57.53
2018-11-11T07:25:50.969Z,69.63
2018-11-11T07:28:19.163Z,68.67
2018-11-11T07:30:47.343Z,80.53
2018-11-11T07:33:15.500Z,75.20
2018-11-11T07:35:43.665Z,65.53
2018-11-11T07:38:11.832Z,84.87
2018-11-11T07:40:40.023Z,70.50
2018-11-11T07:43:08.199Z,72.30
2018-11-11T07:45:36.393Z,64.47
2018-11-11T07:48:05.127Z,73.13
2018-11-11T07:50:33.240Z,66.17
2018-11-11T07:53:01.390Z,76.30
2018-11-11T07:55:29.597Z,84.83
2018-11-11T07:57:57.735Z,86.73
2018-11-11T08:00:25.940Z,76.03
2018-11-11T08:02:54.075Z,64.43
2018-11-11T08:05:22.174Z,59.40
2018-11-11T08:07:50.357Z,74.00
2018-11-11T08:10:30.064Z,66.43
2018-11-11T08:12:58.211Z,73.90
2018-11-11T08:15:26.345Z,59.37
2018-11-11T08:17:54.620Z,69.00
2018-11-11T08:22:55.623Z,55.20
2018-11-11T08:25:23.838Z,57.83
2018-11-11T08:27:51.961Z,75.90
2018-11-11T08:30:20.123Z,53.20
2018-11-11T08:32:48.412Z,65.10
2018-11-11T08:35:16.615Z,60.13
2018-11-11T08:37:44.776Z,60.77
2018-11-11T08:40:12.882Z,43.60
2018-11-11T08:42:41.131Z,49.60
2018-11-11T08:45:11.911Z,57.50
2018-11-11T08:47:40.218Z,48.60
2018-11-11T08:50:09.095Z,65.67
2018-11-11T08:52:38.307Z,53.00
2018-11-11T08:55:06.488Z,41.83
2018-11-11T08:57:34.728Z,45.83
2018-11-11T09:00:02.932Z,54.50
2018-11-11T09:02:31.139Z,49.67
2018-11-11T09:04:59.457Z,49.07
2018-11-11T09:07:27.722Z,52.80
2018-11-11T09:09:55.924Z,45.07
2018-11-11T09:12:24.080Z,50.13
2018-11-11T09:14:52.275Z,53.70
2018-11-11T09:17:20.522Z,46.77
2018-11-11T09:19:48.747Z,51.43
2018-11-11T09:22:16.924Z,48.63
2018-11-11T09:24:45.121Z,42.17
2018-11-11T09:27:13.304Z,48.57
2018-11-11T09:29:41.411Z,55.77
2018-11-11T09:32:09.617Z,58.47
2018-11-11T09:34:37.799Z,57.43
2018-11-11T09:37:06.209Z,49.80
2018-11-11T09:39:34.500Z,50.53
2018-11-11T09:42:03.773Z,52.17
2018-11-11T09:44:31.909Z,54.37
2018-11-11T09:47:00.244Z,48.17
2018-11-11T09:49:28.344Z,46.20
2018-11-11T09:51:56.544Z,49.20
2018-11-11T09:54:25.737Z,47.63
2018-11-11T09:56:54.035Z,47.30
2018-11-11T09:59:22.387Z,55.30
2018-11-11T10:01:51.055Z,49.47
2018-11-11T10:04:30.267Z,44.03
2018-11-11T10:07:03.823Z,42.47
2018-11-11T10:09:40.088Z,39.90
2018-11-11T10:13:28.301Z,42.33
2018-11-11T10:16:02.074Z,48.20
2018-11-11T10:18:34.049Z,48.07
2018-11-11T10:21:21.585Z,44.27
2018-11-11T10:24:25.718Z,46.67
2018-11-11T10:26:59.437Z,40.07
2018-11-11T10:29:35.973Z,44.63
2018-11-11T10:32:18.341Z,44.43
2018-11-11T10:34:52.600Z,59.77
2018-11-11T10:38:26.250Z,46.10
2018-11-11T10:40:58.084Z,56.90
2018-11-11T10:43:36.104Z,49.43
2018-11-11T10:46:38.588Z,48.33
2018-11-11T10:49:08.708Z,49.80
2018-11-11T10:51:37.144Z,37.17
2018-11-11T10:54:05.928Z,44.60
2018-11-11T10:59:01.209Z,41.57
2018-11-11T11:01:34.838Z,52.40
2018-11-11T11:04:03.319Z,49.17
2018-11-11T11:06:36.938Z,43.47
2018-11-11T11:09:08.089Z,37.80
2018-11-11T11:11:36.327Z,47.53
2018-11-11T11:14:04.485Z,38.13
2018-11-11T11:16:32.664Z,43.63
2018-11-11T11:19:00.812Z,45.90
2018-11-11T11:21:29.011Z,39.83
2018-11-11T11:23:57.171Z,44.90
2018-11-11T11:26:25.419Z,44.83
2018-11-11T11:28:53.624Z,36.90
2018-11-11T11:31:21.811Z,36.63
2018-11-11T11:33:49.970Z,37.43
2018-11-11T11:36:18.144Z,38.90
2018-11-11T11:38:46.363Z,45.60
2018-11-11T11:41:14.516Z,44.13
2018-11-11T11:43:42.663Z,44.43
2018-11-11T11:46:11.839Z,37.43
2018-11-11T11:48:40.074Z,51.67
2018-11-11T11:51:08.224Z,34.93
2018-11-11T11:53:36.432Z,43.33
2018-11-11T11:56:04.595Z,42.10
2018-11-11T11:58:32.914Z,36.90
2018-11-11T12:01:01.137Z,56.63
2018-11-11T12:03:29.323Z,41.13
2018-11-11T12:05:57.507Z,36.23
2018-11-11T12:08:25.703Z,38.47
2018-11-11T12:10:53.832Z,36.80
2018-11-11T12:13:21.990Z,35.33
2018-11-11T12:15:50.180Z,37.23
2018-11-11T12:18:20.327Z,38.97
2018-11-11T12:20:48.435Z,41.43
2018-11-11T12:23:16.680Z,30.97
2018-11-11T12:25:44.861Z,37.60
2018-11-11T12:28:13.000Z,36.63
2018-11-11T12:30:42.566Z,31.90
2018-11-11T12:33:11.942Z,33.10
2018-11-11T12:35:40.140Z,36.97
2018-11-11T12:38:08.422Z,36.67
2018-11-11T12:40:36.615Z,37.10
2018-11-11T12:43:04.840Z,35.30
2018-11-11T12:45:33.048Z,41.50
2018-11-11T12:48:01.294Z,39.73
2018-11-11T12:50:29.682Z,36.87
2018-11-11T12:52:57.703Z,37.40
2018-11-11T12:55:25.902Z,33.60
2018-11-11T12:57:54.570Z,36.50
2018-11-11T13:00:23.032Z,35.77
2018-11-11T13:02:52.284Z,33.70
2018-11-11T13:05:20.809Z,30.87
2018-11-11T13:07:49.615Z,39.03
2018-11-11T13:10:18.765Z,36.23
2018-11-11T13:12:47.260Z,36.70
2018-11-11T13:15:15.942Z,34.17
2018-11-11T13:17:45.005Z,39.10
2018-11-11T13:20:15.294Z,37.07
2018-11-11T13:22:44.368Z,36.93
2018-11-11T13:25:14.090Z,36.70
2018-11-11T13:27:43.006Z,43.50
2018-11-11T13:30:13.010Z,35.57
2018-11-11T13:32:43.109Z,35.17
2018-11-11T13:35:14.564Z,40.07
2018-11-11T13:37:43.545Z,36.90
2018-11-11T13:40:16.228Z,37.97
2018-11-11T13:42:45.230Z,37.10
2018-11-11T13:45:17.321Z,43.97
2018-11-11T13:47:46.976Z,40.00
2018-11-11T13:50:18.157Z,47.33
2018-11-11T13:52:47.254Z,38.60
2018-11-11T13:55:16.431Z,40.30
2018-11-11T13:57:45.618Z,39.30
2018-11-11T14:00:17.609Z,37.17
2018-11-11T14:02:46.172Z,40.77
2018-11-11T14:05:14.872Z,43.67
2018-11-11T14:07:45.471Z,37.27
2018-11-11T14:10:14.651Z,50.47
2018-11-11T14:12:42.818Z,37.20
2018-11-11T14:15:14.332Z,42.00
2018-11-11T14:17:43.400Z,37.33
2018-11-11T14:20:13.922Z,36.23
2018-11-11T14:22:44.664Z,37.33
2018-11-11T14:25:15.442Z,36.57
2018-11-11T14:27:43.912Z,36.23
2018-11-11T14:30:14.570Z,35.93
2018-11-11T14:32:42.853Z,33.07
2018-11-11T14:35:11.617Z,36.13
2018-11-11T14:37:39.885Z,33.37
2018-11-11T14:40:11.922Z,32.50
2018-11-11T14:42:40.287Z,33.77
2018-11-11T14:45:09.374Z,32.63
2018-11-11T14:47:37.697Z,32.93
2018-11-11T14:50:06.769Z,31.77
2018-11-11T14:52:34.910Z,33.13
2018-11-11T14:55:03.103Z,31.93
2018-11-11T14:57:31.298Z,37.60
2018-11-11T15:00:00.115Z,32.40
2018-11-11T15:02:28.401Z,40.97
2018-11-11T15:04:57.513Z,32.30
2018-11-11T15:07:25.808Z,32.00
2018-11-11T15:09:53.959Z,33.47
2018-11-11T15:12:22.172Z,35.47
2018-11-11T15:14:50.324Z,32.80
2018-11-11T15:17:18.499Z,31.10
2018-11-11T15:19:46.696Z,33.67
2018-11-11T15:22:15.053Z,28.43
2018-11-11T15:24:43.239Z,31.63
2018-11-11T15:27:11.736Z,29.63
2018-11-11T15:29:39.936Z,33.27
2018-11-11T15:32:08.092Z,31.50
2018-11-11T15:34:36.247Z,35.10
2018-11-11T15:37:04.668Z,34.80
2018-11-11T15:39:33.066Z,35.30
2018-11-11T15:42:01.837Z,32.63
2018-11-11T15:44:29.976Z,34.30
2018-11-11T15:46:58.147Z,40.20
2018-11-11T15:49:26.272Z,32.50
2018-11-11T15:51:54.637Z,41.23
2018-11-11T15:54:22.856Z,34.20
2018-11-11T15:56:51.032Z,31.77
2018-11-11T15:59:19.334Z,37.33
2018-11-11T16:01:47.461Z,44.33
2018-11-11T16:04:15.694Z,36.13
2018-11-11T16:06:43.835Z,35.57
2018-11-11T16:09:12.004Z,32.20
2018-11-11T16:11:40.351Z,30.53
2018-11-11T16:14:08.614Z,34.17
2018-11-11T16:16:36.712Z,40.10
2018-11-11T16:19:04.961Z,38.20
2018-11-11T16:21:33.076Z,43.20
2018-11-11T16:24:01.242Z,31.87
2018-11-11T16:26:29.403Z,32.67
2018-11-11T16:28:57.608Z,33.97
2018-11-11T16:31:25.803Z,39.87
2018-11-11T16:33:53.965Z,39.90
2018-11-11T16:36:22.124Z,33.63
2018-11-11T16:38:50.443Z,37.63
2018-11-11T16:41:18.677Z,39.57
2018-11-11T16:43:46.814Z,48.17
2018-11-11T16:46:15.000Z,42.70
2018-11-11T16:48:43.485Z,49.37
2018-11-11T16:51:11.678Z,50.27
2018-11-11T16:53:39.936Z,46.47
2018-11-11T16:56:08.107Z,51.77
2018-11-11T16:58:36.284Z,42.63
2018-11-11T17:01:04.755Z,42.77
2018-11-11T17:03:32.963Z,53.63
2018-11-11T17:06:01.137Z,46.07
2018-11-11T17:08:29.314Z,51.50
2018-11-11T17:10:57.474Z,54.77
2018-11-11T17:13:25.709Z,41.73
2018-11-11T17:15:53.799Z,46.23
2018-11-11T17:18:22.124Z,56.90
2018-11-11T17:20:50.294Z,59.10
2018-11-11T17:23:18.480Z,58.97
2018-11-11T17:25:46.610Z,52.83
2018-11-11T17:28:15.417Z,52.47
2018-11-11T17:30:43.633Z,69.87
2018-11-11T17:33:11.746Z,53.33
2018-11-11T17:35:42.864Z,53.77
2018-11-11T17:38:11.119Z,55.70
2018-11-11T17:40:39.258Z,49.67
2018-11-11T17:43:07.481Z,46.83
2018-11-11T17:45:35.641Z,49.07
2018-11-11T17:48:03.912Z,50.03
2018-11-11T17:50:33.148Z,50.47
2018-11-11T17:53:02.637Z,51.70
2018-11-11T17:55:31.029Z,62.50
2018-11-11T17:57:59.302Z,66.07
2018-11-11T18:00:28.622Z,43.00
2018-11-11T18:02:57.482Z,49.97
2018-11-11T18:05:26.613Z,51.47
2018-11-11T18:07:54.936Z,59.27
2018-11-11T18:10:23.916Z,51.57
2018-11-11T18:12:52.194Z,50.50
2018-11-11T18:15:21.874Z,49.30
2018-11-11T18:17:50.202Z,49.23
2018-11-11T18:20:21.771Z,48.93
2018-11-11T18:22:50.746Z,40.13
2018-11-11T18:25:18.998Z,53.37
2018-11-11T18:27:47.262Z,45.53
2018-11-11T18:30:19.901Z,50.07
2018-11-11T18:32:48.108Z,44.33
2018-11-11T18:35:16.973Z,52.13
2018-11-11T18:37:45.252Z,44.17
2018-11-11T18:40:14.621Z,51.63
2018-11-11T18:42:42.812Z,57.87
2018-11-11T18:45:14.826Z,50.20
2018-11-11T18:47:43.160Z,48.37
2018-11-11T18:50:13.857Z,47.27
2018-11-11T18:52:42.096Z,46.40
2018-11-11T18:55:10.932Z,46.33
2018-11-11T18:57:39.484Z,47.00
2018-11-11T19:00:10.862Z,50.60
2018-11-11T19:02:39.014Z,47.83
2018-11-11T19:05:08.588Z,48.23
2018-11-11T19:07:36.918Z,60.77
2018-11-11T19:10:06.179Z,50.37
2018-11-11T19:12:34.387Z,45.37
2018-11-11T19:15:02.609Z,44.30
2018-11-11T19:17:31.142Z,62.30
2018-11-11T19:19:59.447Z,42.77
2018-11-11T19:22:27.859Z,54.30
2018-11-11T19:24:56.141Z,57.37
2018-11-11T19:27:24.420Z,58.30
2018-11-11T19:29:52.757Z,67.17
2018-11-11T19:32:20.934Z,56.73
2018-11-11T19:34:49.177Z,55.83
2018-11-11T19:37:17.402Z,56.13
2018-11-11T19:39:45.578Z,54.53
2018-11-11T19:42:13.740Z,57.60
2018-11-11T19:44:41.866Z,56.73
2018-11-11T19:47:10.066Z,61.03
2018-11-11T19:49:38.239Z,60.07
2018-11-11T19:52:06.618Z,58.13
2018-11-11T19:54:34.776Z,54.83
2018-11-11T19:57:03.367Z,47.83
2018-11-11T19:59:31.584Z,68.87
2018-11-11T20:01:59.752Z,53.77
2018-11-11T20:04:28.004Z,67.57
2018-11-11T20:06:56.824Z,47.77
2018-11-11T20:09:25.020Z,55.40
2018-11-11T20:11:53.092Z,52.57
2018-11-11T20:14:21.359Z,58.07
2018-11-11T20:16:49.488Z,61.83
2018-11-11T20:19:17.659Z,58.40
2018-11-11T20:21:45.855Z,56.27
2018-11-11T20:24:14.137Z,56.37
2018-11-11T20:26:42.288Z,60.63
2018-11-11T20:29:10.517Z,57.97
2018-11-11T20:31:38.763Z,59.50
2018-11-11T20:34:06.893Z,78.67
2018-11-11T20:36:35.102Z,61.93
2018-11-11T20:39:03.836Z,68.13
2018-11-11T20:41:32.032Z,57.13
2018-11-11T20:44:00.496Z,47.00
2018-11-11T20:46:28.567Z,52.10
2018-11-11T20:48:56.649Z,55.07
2018-11-11T20:51:24.854Z,55.17
2018-11-11T20:53:53.120Z,58.50
2018-11-11T20:56:21.371Z,45.63
2018-11-11T20:58:49.480Z,46.80
2018-11-11T21:01:17.624Z,47.80
2018-11-11T21:03:45.882Z,54.77
2018-11-11T21:06:14.056Z,54.70
2018-11-11T21:08:42.170Z,45.17
2018-11-11T21:11:10.536Z,52.13
2018-11-11T21:13:38.688Z,51.37
2018-11-11T21:17:09.667Z,44.47
2018-11-11T21:19:37.903Z,52.47
2018-11-11T21:22:09.559Z,50.23
2018-11-11T21:24:37.747Z,41.03
2018-11-11T21:27:06.109Z,48.43
2018-11-11T21:29:34.223Z,49.93
2018-11-11T21:32:02.416Z,44.80
2018-11-11T21:34:30.603Z,50.70
2018-11-11T21:36:58.761Z,48.53
2018-11-11T21:39:26.917Z,59.17
2018-11-11T21:41:55.071Z,48.83
2018-11-11T21:44:23.333Z,51.60
2018-11-11T21:46:51.999Z,47.70
2018-11-11T21:49:22.263Z,45.73
2018-11-11T21:51:50.404Z,47.43
2018-11-11T21:54:18.483Z,41.67
2018-11-11T21:56:46.690Z,49.47
2018-11-11T21:59:14.769Z,46.10
2018-11-11T22:01:42.965Z,51.20
2018-11-11T22:04:11.160Z,36.97
2018-11-11T22:06:39.283Z,49.83
2018-11-11T22:09:08.798Z,51.13
2018-11-11T22:11:36.884Z,48.33
2018-11-11T22:14:05.411Z,43.40
2018-11-11T22:16:33.634Z,48.33
2018-11-11T22:19:01.833Z,51.57
2018-11-11T22:21:30.084Z,44.30
2018-11-11T22:23:58.237Z,42.13
2018-11-11T22:26:26.414Z,43.63
2018-11-11T22:28:54.676Z,60.70
2018-11-11T22:31:22.864Z,58.90
2018-11-11T22:33:51.051Z,55.63
2018-11-11T22:36:19.248Z,35.73
2018-11-11T22:38:47.427Z,39.20
2018-11-11T22:41:15.676Z,44.53
2018-11-11T22:43:43.882Z,43.50
2018-11-11T22:46:12.080Z,42.60
2018-11-11T22:48:40.608Z,49.30
2018-11-11T22:51:08.791Z,49.57
2018-11-11T22:53:36.988Z,42.97
2018-11-11T22:56:05.163Z,53.80
2018-11-11T22:58:33.317Z,56.27
2018-11-11T23:01:06.961Z,50.90
2018-11-11T23:03:35.136Z,53.57
2018-11-11T23:06:03.340Z,70.97
2018-11-11T23:08:31.432Z,65.50
2018-11-11T23:10:59.653Z,54.90
2018-11-11T23:13:27.780Z,47.37
2018-11-11T23:15:55.948Z,51.03
2018-11-11T23:18:24.111Z,52.00
2018-11-11T23:20:52.182Z,60.93
2018-11-11T23:23:20.488Z,60.67
2018-11-11T23:25:48.622Z,53.80
2018-11-11T23:28:16.715Z,71.13
2018-11-11T23:30:44.919Z,61.10
2018-11-11T23:33:13.113Z,53.83
2018-11-11T23:35:41.235Z,51.73
2018-11-11T23:38:09.400Z,47.50
2018-11-11T23:40:37.500Z,59.63
2018-11-11T23:43:05.688Z,61.77
2018-11-11T23:45:33.844Z,65.57
2018-11-11T23:48:02.048Z,59.50
2018-11-11T23:50:30.180Z,62.33
2018-11-11T23:52:58.385Z,59.90
2018-11-11T23:55:26.523Z,60.50
2018-11-11T23:57:54.599Z,63.27
